Time;durP1;ratioP1;P1;durP2;ratioP2;P2;SDS_P1;SDS_P2;PMS_P1;PMS_P2;Temp;Humidity;BMP_temperature;BMP_pressure;BME280_temperature;BME280_humidity;BME280_pressure;Samples;Min_cycle;Max_cycle;Signal;HPM_P1;HPM_P2
2023/06/03 00:01:12;;;;;;;13.17;4.37;;;17.40;61.80;;;;;;5046666;28;20562;-77
2023/06/03 00:03:44;;;;;;;8.17;3.97;;;17.30;61.90;;;;;;5042992;28;20475;-76
2023/06/03 00:06:14;;;;;;;13.60;4.33;;;17.30;62.00;;;;;;5049160;28;20906;-77
2023/06/03 00:08:43;;;;;;;6.87;3.63;;;17.20;62.10;;;;;;5045134;28;20466;-77
2023/06/03 00:11:13;;;;;;;13.63;4.80;;;17.20;62.20;;;;;;5045990;28;20467;-76
2023/06/03 00:13:41;;;;;;;13.60;3.90;;;17.10;62.30;;;;;;5047258;28;20465;-77
2023/06/03 00:16:09;;;;;;;10.63;4.30;;;17.10;62.40;;;;;;5047835;28;20450;-77
2023/06/03 00:18:37;;;;;;;14.73;4.53;;;17.00;62.50;;;;;;5023829;28;20456;-76
2023/06/03 00:21:05;;;;;;;14.30;4.63;;;17.00;62.60;;;;;;5048192;28;20482;-77
2023/06/03 00:23:36;;;;;;;12.73;5.10;;;16.90;62.80;;;;;;5049121;28;20831;-76
2023/06/03 00:26:06;;;;;;;10.63;4.37;;;16.90;62.90;;;;;;5040274;28;20565;-77
2023/06/03 00:28:34;;;;;;;6.97;3.73;;;16.80;63.00;;;;;;5046815;28;20495;-77
2023/06/03 00:31:02;;;;;;;8.60;4.13;;;16.80;63.00;;;;;;5045462;28;20483;-77
2023/06/03 00:33:31;;;;;;;13.63;4.20;;;16.70;63.10;;;;;;5031139;28;20542;-77
2023/06/03 00:35:59;;;;;;;10.70;4.53;;;16.70;63.30;;;;;;5045245;28;20499;-77
2023/06/03 00:38:27;;;;;;;18.17;4.60;;;16.70;63.40;;;;;;5048241;28;20534;-77
2023/06/03 00:40:55;;;;;;;9.13;4.23;;;16.70;63.40;;;;;;5043808;28;20466;-77
2023/06/03 00:43:24;;;;;;;11.10;5.23;;;16.60;63.50;;;;;;5044641;28;20455;-77
2023/06/03 00:45:53;;;;;;;16.17;4.60;;;16.60;63.50;;;;;;5036560;28;20567;-77
2023/06/03 00:48:21;;;;;;;8.77;4.03;;;16.50;63.50;;;;;;5027122;28;20731;-77
2023/06/03 00:50:49;;;;;;;15.43;4.20;;;16.50;63.70;;;;;;5043827;28;20808;-77
2023/06/03 00:53:17;;;;;;;9.73;4.27;;;16.50;63.80;;;;;;5048102;28;20549;-77
2023/06/03 00:55:46;;;;;;;12.40;3.90;;;16.50;63.90;;;;;;5027674;28;20968;-77
2023/06/03 00:58:14;;;;;;;10.27;4.43;;;16.50;63.90;;;;;;5046545;28;20535;-77
2023/06/03 01:00:43;;;;;;;12.13;4.90;;;16.50;64.00;;;;;;5028962;28;20874;-76
2023/06/03 01:03:13;;;;;;;8.03;3.80;;;16.50;64.20;;;;;;5050064;28;20458;-77
2023/06/03 01:05:46;;;;;;;8.43;4.03;;;16.50;64.20;;;;;;5030440;28;20475;-74
2023/06/03 01:08:24;;;;;;;9.27;4.90;;;16.50;64.20;;;;;;5033536;28;20636;-77
2023/06/03 01:11:02;;;;;;;10.57;4.07;;;16.50;64.20;;;;;;5052013;28;20469;-77
2023/06/03 01:13:46;;;;;;;9.80;4.30;;;16.40;64.20;;;;;;5048366;28;20516;-77
2023/06/03 01:16:18;;;;;;;10.93;4.37;;;16.40;64.40;;;;;;5049619;28;20516;-77
2023/06/03 01:18:47;;;;;;;10.40;4.40;;;16.30;64.40;;;;;;5039715;28;20500;-77
2023/06/03 01:21:16;;;;;;;8.43;4.07;;;16.40;64.40;;;;;;5038644;28;20468;-77
2023/06/03 01:23:48;;;;;;;11.33;4.37;;;16.30;64.40;;;;;;5048505;28;20746;-75
2023/06/03 01:26:16;;;;;;;8.70;4.73;;;16.30;64.60;;;;;;5030918;28;20994;-76
2023/06/03 01:28:49;;;;;;;13.47;5.00;;;16.30;64.60;;;;;;5047759;28;20556;-77
2023/06/03 01:31:18;;;;;;;9.97;4.43;;;16.30;64.70;;;;;;5053215;28;20601;-78
2023/06/03 01:33:46;;;;;;;12.03;4.53;;;16.30;64.70;;;;;;5048343;28;20471;-77
2023/06/03 01:36:14;;;;;;;10.63;4.80;;;16.20;64.70;;;;;;5067318;28;20477;-77
2023/06/03 01:38:44;;;;;;;11.60;4.90;;;16.20;64.80;;;;;;5050436;28;20486;-78
2023/06/03 01:41:13;;;;;;;13.57;4.90;;;16.10;64.80;;;;;;5049694;28;21109;-77
2023/06/03 01:43:41;;;;;;;18.03;4.10;;;16.20;64.90;;;;;;5060977;28;20493;-77
2023/06/03 01:46:09;;;;;;;9.80;4.97;;;16.20;65.00;;;;;;5050057;28;20459;-77
2023/06/03 01:48:38;;;;;;;10.70;4.80;;;16.10;65.00;;;;;;5053211;28;20461;-77
2023/06/03 01:51:06;;;;;;;14.77;4.90;;;16.10;65.00;;;;;;5047997;28;20459;-77
2023/06/03 01:53:34;;;;;;;12.10;4.37;;;16.10;65.10;;;;;;5047090;28;20473;-77
2023/06/03 01:56:04;;;;;;;10.80;5.40;;;16.10;65.10;;;;;;5048964;28;20517;-77
2023/06/03 01:58:32;;;;;;;10.20;4.33;;;16.10;65.20;;;;;;5050737;28;20515;-76
2023/06/03 02:01:01;;;;;;;11.27;4.40;;;16.10;65.20;;;;;;5049378;28;20535;-77
2023/06/03 02:03:29;;;;;;;11.83;4.50;;;16.10;65.20;;;;;;5048860;28;20464;-77
2023/06/03 02:05:57;;;;;;;9.20;4.70;;;16.10;65.20;;;;;;5047429;28;20463;-77
2023/06/03 02:08:25;;;;;;;9.83;4.77;;;16.00;65.20;;;;;;5054914;28;20504;-77
2023/06/03 02:10:55;;;;;;;9.83;4.80;;;16.00;65.30;;;;;;5056250;28;20487;-77
2023/06/03 02:13:25;;;;;;;9.97;5.17;;;15.90;65.30;;;;;;5053986;28;20468;-77
2023/06/03 02:15:53;;;;;;;7.93;4.00;;;15.90;65.30;;;;;;5051049;28;20450;-77
2023/06/03 02:18:21;;;;;;;7.80;4.23;;;15.90;65.30;;;;;;5053290;28;21002;-77
2023/06/03 02:20:48;;;;;;;11.53;5.00;;;15.80;65.30;;;;;;5049143;28;20461;-77
2023/06/03 02:23:16;;;;;;;9.13;4.57;;;15.70;65.50;;;;;;5051934;28;20557;-77
2023/06/03 02:25:44;;;;;;;9.30;5.17;;;15.70;65.50;;;;;;5047463;28;20503;-77
2023/06/03 02:28:16;;;;;;;10.87;4.87;;;15.60;65.60;;;;;;5048499;28;20525;-76
2023/06/03 02:30:45;;;;;;;13.20;5.27;;;15.60;65.70;;;;;;5049420;28;20474;-75
2023/06/03 02:33:13;;;;;;;9.80;5.10;;;15.60;65.80;;;;;;5048315;28;20479;-78
2023/06/03 02:35:41;;;;;;;9.10;4.53;;;15.60;65.80;;;;;;5052270;28;20478;-77
2023/06/03 02:38:10;;;;;;;10.60;4.53;;;15.60;65.90;;;;;;5041332;28;20444;-75
2023/06/03 02:40:40;;;;;;;12.10;4.77;;;15.50;65.90;;;;;;5063204;28;20734;-77
2023/06/03 02:43:09;;;;;;;11.40;4.70;;;15.50;65.90;;;;;;5040630;28;20487;-78
2023/06/03 02:45:37;;;;;;;8.60;4.07;;;15.50;66.00;;;;;;5062482;28;20474;-74
2023/06/03 02:48:06;;;;;;;10.77;4.50;;;15.50;66.00;;;;;;5056712;28;20492;-75
2023/06/03 02:50:35;;;;;;;8.60;5.30;;;15.50;65.90;;;;;;5061493;28;20521;-76
2023/06/03 02:53:03;;;;;;;14.50;4.77;;;15.50;65.90;;;;;;5062397;28;20503;-77
2023/06/03 02:55:33;;;;;;;9.97;4.60;;;15.40;65.80;;;;;;5050279;28;20459;-77
2023/06/03 02:58:01;;;;;;;9.63;4.50;;;15.30;65.80;;;;;;5053571;28;20476;-77
2023/06/03 03:00:30;;;;;;;12.27;5.23;;;15.30;65.90;;;;;;5052139;28;20480;-76
2023/06/03 03:02:58;;;;;;;18.53;4.90;;;15.20;65.90;;;;;;5049353;28;20484;-77
2023/06/03 03:05:30;;;;;;;10.17;4.90;;;15.20;66.00;;;;;;5050803;28;20468;-77
2023/06/03 03:07:59;;;;;;;12.13;4.93;;;15.20;66.00;;;;;;5049961;28;20550;-77
2023/06/03 03:10:28;;;;;;;9.80;5.97;;;15.10;66.00;;;;;;5048508;28;20462;-77
2023/06/03 03:12:56;;;;;;;18.70;5.70;;;15.10;66.10;;;;;;5058583;28;20481;-77
2023/06/03 03:15:24;;;;;;;10.07;5.47;;;15.10;66.30;;;;;;5065860;28;20496;-76
2023/06/03 03:17:54;;;;;;;15.67;5.70;;;15.10;66.30;;;;;;5049179;28;20482;-77
2023/06/03 03:20:22;;;;;;;12.83;5.40;;;15.00;66.30;;;;;;5046266;28;21132;-77
2023/06/03 03:22:51;;;;;;;11.00;5.37;;;15.00;66.30;;;;;;5060771;28;20519;-77
2023/06/03 03:25:21;;;;;;;15.00;5.60;;;15.00;66.40;;;;;;5046844;28;20560;-77
2023/06/03 03:27:49;;;;;;;9.87;4.80;;;15.00;66.40;;;;;;5049486;28;20465;-77
2023/06/03 03:30:17;;;;;;;11.93;5.37;;;15.00;66.50;;;;;;5046759;28;20452;-77
2023/06/03 03:32:47;;;;;;;9.80;5.33;;;15.00;66.50;;;;;;5050204;28;21618;-77
2023/06/03 03:35:19;;;;;;;11.07;6.03;;;15.00;66.50;;;;;;5060997;28;20466;-77
2023/06/03 03:38:01;;;;;;;8.13;4.90;;;15.00;66.40;;;;;;5046192;28;20561;-77
2023/06/03 03:40:32;;;;;;;11.60;4.83;;;15.00;66.40;;;;;;5064449;28;20454;-77
2023/06/03 03:43:02;;;;;;;13.90;5.57;;;15.00;66.40;;;;;;5046599;28;20490;-77
2023/06/03 03:45:35;;;;;;;11.23;5.83;;;14.90;66.40;;;;;;5053203;28;20534;-77
2023/06/03 03:48:06;;;;;;;8.50;4.73;;;14.90;66.40;;;;;;5063787;28;20461;-77
2023/06/03 03:50:42;;;;;;;11.00;6.97;;;14.90;66.50;;;;;;5063469;28;20467;-76
2023/06/03 03:53:14;;;;;;;12.00;5.30;;;14.90;66.60;;;;;;5062004;28;20467;-77
2023/06/03 03:55:45;;;;;;;14.40;6.57;;;14.90;66.60;;;;;;5046062;28;20511;-77
2023/06/03 03:58:30;;;;;;;12.97;6.87;;;14.90;66.60;;;;;;5039452;28;20464;-76
2023/06/03 04:01:02;;;;;;;12.03;5.27;;;14.90;66.70;;;;;;5041898;28;20470;-77
2023/06/03 04:03:35;;;;;;;12.50;5.57;;;14.90;66.70;;;;;;5061282;28;20487;-76
2023/06/03 04:06:05;;;;;;;15.83;5.70;;;14.90;66.70;;;;;;5043904;28;20609;-77
2023/06/03 04:08:45;;;;;;;13.03;5.20;;;14.90;66.70;;;;;;5045664;28;21269;-77
2023/06/03 04:11:20;;;;;;;13.97;5.40;;;15.00;66.80;;;;;;5048413;28;21209;-77
2023/06/03 04:13:50;;;;;;;11.83;5.07;;;15.00;66.80;;;;;;5044413;28;20487;-75
2023/06/03 04:16:45;;;;;;;12.63;5.70;;;15.00;66.90;;;;;;5047220;28;20462;-77
2023/06/03 04:19:20;;;;;;;11.90;5.50;;;15.10;66.90;;;;;;5050609;28;20506;-76
2023/06/03 04:21:49;;;;;;;12.07;6.23;;;15.10;66.90;;;;;;5064138;28;20881;-76
2023/06/03 04:24:18;;;;;;;11.60;6.27;;;15.20;66.90;;;;;;5064223;28;20553;-77
2023/06/03 04:26:47;;;;;;;13.63;5.50;;;15.20;66.90;;;;;;5048082;28;20870;-77
2023/06/03 04:29:15;;;;;;;12.20;6.30;;;15.30;66.90;;;;;;5046247;28;20678;-77
2023/06/03 04:31:44;;;;;;;11.30;6.00;;;15.30;66.80;;;;;;5048070;28;20482;-77
2023/06/03 04:34:13;;;;;;;13.60;6.90;;;15.40;66.90;;;;;;5044198;28;20599;-77
2023/06/03 04:36:41;;;;;;;12.70;6.70;;;15.40;67.00;;;;;;5057117;28;20464;-77
2023/06/03 04:39:10;;;;;;;12.57;5.80;;;15.60;67.10;;;;;;5048633;28;20472;-77
2023/06/03 04:41:43;;;;;;;8.60;5.37;;;15.70;67.10;;;;;;5052019;28;20467;-77
2023/06/03 04:44:13;;;;;;;13.63;6.03;;;15.80;67.20;;;;;;5070062;28;20580;-77
2023/06/03 04:46:45;;;;;;;11.33;6.07;;;15.90;67.20;;;;;;5050430;28;20469;-75
2023/06/03 04:49:14;;;;;;;12.47;5.93;;;16.10;67.30;;;;;;5063970;28;20961;-78
2023/06/03 04:51:44;;;;;;;13.90;5.97;;;16.30;67.30;;;;;;5048334;28;20796;-77
2023/06/03 04:54:14;;;;;;;12.83;6.17;;;16.40;67.40;;;;;;5051471;28;20476;-77
2023/06/03 04:56:47;;;;;;;13.20;6.13;;;16.50;67.30;;;;;;5047914;28;20466;-77
2023/06/03 04:59:17;;;;;;;12.13;5.40;;;16.70;67.30;;;;;;5049558;28;20447;-77
2023/06/03 05:01:51;;;;;;;12.50;5.60;;;16.70;67.00;;;;;;5068258;28;20577;-77
2023/06/03 05:04:23;;;;;;;9.63;4.53;;;16.80;66.80;;;;;;5053516;28;20505;-77
2023/06/03 05:06:52;;;;;;;9.53;5.10;;;16.80;66.60;;;;;;5047612;28;20443;-77
2023/06/03 05:09:20;;;;;;;12.50;5.60;;;16.80;66.20;;;;;;5046580;28;20463;-77
2023/06/03 05:11:52;;;;;;;10.33;5.30;;;16.70;66.00;;;;;;5047764;28;20553;-77
2023/06/03 05:14:21;;;;;;;9.87;5.10;;;16.60;65.90;;;;;;5048943;28;20503;-77
2023/06/03 05:16:51;;;;;;;9.00;4.97;;;16.50;65.70;;;;;;5050010;28;20632;-77
2023/06/03 05:19:19;;;;;;;8.50;4.10;;;16.50;65.70;;;;;;5048184;28;20834;-77
2023/06/03 05:21:47;;;;;;;12.30;4.70;;;16.50;65.70;;;;;;5055776;28;20546;-77
2023/06/03 05:24:16;;;;;;;12.07;5.03;;;16.40;65.70;;;;;;5068311;28;20531;-77
2023/06/03 05:26:44;;;;;;;9.07;4.60;;;16.30;65.70;;;;;;5049690;28;20447;-77
2023/06/03 05:29:13;;;;;;;9.17;4.37;;;16.30;65.70;;;;;;5051967;28;20458;-77
2023/06/03 05:31:41;;;;;;;10.77;4.30;;;16.40;65.70;;;;;;5048266;28;20484;-77
2023/06/03 05:34:10;;;;;;;8.30;4.20;;;16.40;65.60;;;;;;5045622;28;20466;-76
2023/06/03 05:36:39;;;;;;;10.57;4.90;;;16.40;65.50;;;;;;5049194;28;21163;-77
2023/06/03 05:39:07;;;;;;;10.80;3.90;;;16.60;65.40;;;;;;5068516;28;20570;-77
2023/06/03 05:41:35;;;;;;;8.27;3.90;;;16.70;64.90;;;;;;5049449;28;21266;-77
2023/06/03 05:44:06;;;;;;;8.63;4.13;;;16.70;65.20;;;;;;5045285;28;21371;-77
2023/06/03 05:46:35;;;;;;;11.13;4.10;;;17.40;65.10;;;;;;5051160;28;20487;-77
2023/06/03 05:49:04;;;;;;;11.07;4.03;;;18.20;64.40;;;;;;5050669;28;20463;-77
2023/06/03 05:51:33;;;;;;;12.13;3.57;;;18.80;63.10;;;;;;5049172;28;20479;-78
2023/06/03 05:54:01;;;;;;;8.40;3.93;;;19.10;62.00;;;;;;5050772;28;21125;-76
2023/06/03 05:56:29;;;;;;;7.40;3.20;;;19.00;61.50;;;;;;5054764;28;20468;-76
2023/06/03 05:58:58;;;;;;;8.43;3.70;;;18.80;61.70;;;;;;5062277;28;20572;-75
2023/06/03 06:01:32;;;;;;;11.37;3.67;;;18.80;61.00;;;;;;5047281;28;20534;-76
2023/06/03 06:04:02;;;;;;;7.30;3.63;;;18.40;60.70;;;;;;5061962;28;20493;-77
2023/06/03 06:06:30;;;;;;;8.87;4.00;;;18.00;60.70;;;;;;5050300;28;20452;-75
2023/06/03 06:08:58;;;;;;;9.50;3.13;;;17.80;61.10;;;;;;5050359;28;20457;-75
2023/06/03 06:11:27;;;;;;;14.17;3.53;;;17.80;61.50;;;;;;5064803;28;20559;-76
2023/06/03 06:13:55;;;;;;;7.67;3.50;;;17.90;61.10;;;;;;5048913;28;20580;-77
2023/06/03 06:16:24;;;;;;;13.77;4.30;;;17.80;60.80;;;;;;5049496;28;20630;-77
2023/06/03 06:18:52;;;;;;;7.00;3.43;;;17.70;60.80;;;;;;5050034;28;20461;-77
2023/06/03 06:21:21;;;;;;;8.90;3.80;;;17.60;61.10;;;;;;5047104;28;20547;-76
2023/06/03 06:23:50;;;;;;;8.43;3.70;;;17.50;61.20;;;;;;5047135;28;20620;-77
2023/06/03 06:26:18;;;;;;;7.67;3.67;;;17.50;61.40;;;;;;5046880;28;20451;-77
2023/06/03 06:28:46;;;;;;;11.17;3.70;;;17.50;61.40;;;;;;5048580;28;20467;-77
2023/06/03 06:31:17;;;;;;;11.30;3.53;;;17.50;61.20;;;;;;5048471;28;20541;-77
2023/06/03 06:33:50;;;;;;;8.40;3.77;;;17.50;61.30;;;;;;5044578;28;20936;-77
2023/06/03 06:36:43;;;;;;;11.60;4.60;;;17.50;61.30;;;;;;5049752;28;20815;-76
2023/06/03 06:39:50;;;;;;;12.60;3.60;;;17.50;61.30;;;;;;5066399;28;20494;-77
2023/06/03 06:42:31;;;;;;;6.63;3.53;;;17.50;61.40;;;;;;5050369;28;20455;-76
2023/06/03 06:45:10;;;;;;;9.20;4.30;;;17.60;61.50;;;;;;5048317;28;20739;-77
2023/06/03 06:47:39;;;;;;;10.03;3.97;;;17.60;61.50;;;;;;5046764;28;20474;-77
2023/06/03 06:50:16;;;;;;;8.93;4.07;;;17.60;61.30;;;;;;5048858;28;20729;-77
2023/06/03 06:52:46;;;;;;;10.17;4.57;;;17.60;61.20;;;;;;5060116;28;20463;-77
2023/06/03 06:55:39;;;;;;;7.30;3.50;;;17.70;61.20;;;;;;5046011;28;20459;-77
2023/06/03 06:58:10;;;;;;;9.73;4.20;;;17.70;61.30;;;;;;5033477;28;20811;-77
2023/06/03 07:00:38;;;;;;;9.00;3.60;;;17.70;61.40;;;;;;5047830;28;20945;-77
2023/06/03 07:03:08;;;;;;;7.67;3.80;;;17.70;61.30;;;;;;5059683;28;20575;-77
2023/06/03 07:05:36;;;;;;;9.27;3.87;;;17.80;61.30;;;;;;5053851;28;20867;-76
2023/06/03 07:08:07;;;;;;;10.30;4.30;;;17.80;61.30;;;;;;5047742;28;20524;-77
2023/06/03 07:10:35;;;;;;;7.70;4.30;;;17.80;61.20;;;;;;5048437;28;20454;-78
2023/06/03 07:13:04;;;;;;;12.20;4.13;;;17.80;61.10;;;;;;5046952;28;20463;-76
2023/06/03 07:15:32;;;;;;;10.23;4.30;;;17.80;61.10;;;;;;5063381;28;20471;-77
2023/06/03 07:18:00;;;;;;;7.63;3.70;;;17.80;61.10;;;;;;5067253;28;20472;-77
2023/06/03 07:20:32;;;;;;;9.37;3.63;;;17.80;61.00;;;;;;5046866;28;20464;-77
2023/06/03 07:23:00;;;;;;;13.10;4.40;;;17.80;61.10;;;;;;5048941;28;20491;-78
2023/06/03 07:25:44;;;;;;;18.23;4.70;;;17.80;61.10;;;;;;5051364;28;20609;-77
2023/06/03 07:28:15;;;;;;;9.87;4.80;;;17.90;61.00;;;;;;5048710;28;20533;-77
2023/06/03 07:30:47;;;;;;;9.67;4.27;;;17.80;61.10;;;;;;5065119;28;20525;-77
2023/06/03 07:33:27;;;;;;;10.00;4.73;;;17.80;61.30;;;;;;5025946;28;20467;-77
2023/06/03 07:35:58;;;;;;;9.40;3.90;;;17.90;61.30;;;;;;5037240;28;20471;-77
2023/06/03 07:39:02;;;;;;;14.50;4.53;;;18.00;61.30;;;;;;5030605;28;20494;-77
2023/06/03 07:41:52;;;;;;;10.13;4.20;;;18.10;61.30;;;;;;4981031;28;21032;-77
2023/06/03 07:44:38;;;;;;;7.70;4.20;;;18.20;61.30;;;;;;5047110;28;20480;-77
2023/06/03 07:47:07;;;;;;;10.10;4.33;;;18.20;61.20;;;;;;5031667;28;20442;-76
2023/06/03 07:49:35;;;;;;;9.10;4.83;;;18.40;61.20;;;;;;5036644;28;20484;-77
2023/06/03 07:52:03;;;;;;;9.43;4.30;;;18.40;61.10;;;;;;5049637;28;20463;-77
2023/06/03 07:54:33;;;;;;;13.50;5.10;;;18.50;61.00;;;;;;5054537;28;20474;-77
2023/06/03 07:57:02;;;;;;;9.53;4.30;;;18.60;60.90;;;;;;5050051;28;20581;-77
2023/06/03 07:59:30;;;;;;;8.33;4.30;;;18.60;60.80;;;;;;5037267;28;20471;-77
2023/06/03 08:01:59;;;;;;;10.30;5.30;;;18.70;60.70;;;;;;5046726;28;20492;-77
2023/06/03 08:04:30;;;;;;;7.60;4.40;;;18.70;60.60;;;;;;5048991;28;21244;-77
2023/06/03 08:07:01;;;;;;;8.63;4.13;;;18.70;60.60;;;;;;5052284;28;20606;-77
2023/06/03 08:09:33;;;;;;;9.60;4.30;;;18.70;60.60;;;;;;5040573;28;20851;-77
2023/06/03 08:12:05;;;;;;;8.67;4.50;;;18.80;60.70;;;;;;5056366;28;20464;-77
2023/06/03 08:14:34;;;;;;;6.80;4.10;;;18.90;60.60;;;;;;5051286;28;21000;-77
2023/06/03 08:17:06;;;;;;;10.57;4.67;;;19.00;60.60;;;;;;5034420;28;20703;-77
2023/06/03 08:19:35;;;;;;;10.57;4.97;;;19.10;60.50;;;;;;5054122;28;20554;-77
2023/06/03 08:22:04;;;;;;;9.90;4.67;;;19.20;60.40;;;;;;5048231;28;20473;-77
2023/06/03 08:24:32;;;;;;;10.30;5.13;;;19.30;60.20;;;;;;5052752;28;20533;-77
2023/06/03 08:27:00;;;;;;;9.67;4.33;;;19.40;60.10;;;;;;5055498;28;20500;-77
2023/06/03 08:29:29;;;;;;;9.47;5.60;;;19.50;60.00;;;;;;5057167;28;20462;-77
2023/06/03 08:31:57;;;;;;;10.23;4.80;;;19.50;59.80;;;;;;5066866;28;20485;-77
2023/06/03 08:34:25;;;;;;;9.73;5.27;;;19.50;59.90;;;;;;5035548;28;20804;-77
2023/06/03 08:36:53;;;;;;;13.43;4.93;;;19.50;59.80;;;;;;5048729;28;20457;-76
2023/06/03 08:39:21;;;;;;;11.40;4.80;;;19.50;59.60;;;;;;5052973;28;20463;-76
2023/06/03 08:41:54;;;;;;;12.77;4.90;;;19.60;59.70;;;;;;5064095;28;20454;-77
2023/06/03 08:44:30;;;;;;;14.00;4.60;;;19.60;59.60;;;;;;5051828;28;20454;-76
2023/06/03 08:47:11;;;;;;;8.63;4.90;;;19.60;59.60;;;;;;5050511;28;20988;-77
2023/06/03 08:49:47;;;;;;;12.33;4.00;;;19.70;59.60;;;;;;5052217;28;20553;-77
2023/06/03 08:52:15;;;;;;;12.23;4.53;;;19.70;59.50;;;;;;5041639;28;20469;-76
2023/06/03 08:54:44;;;;;;;10.37;4.43;;;19.80;59.40;;;;;;5064213;28;20531;-76
2023/06/03 08:57:19;;;;;;;10.43;4.53;;;19.90;59.40;;;;;;5053055;28;20479;-76
2023/06/03 08:59:52;;;;;;;8.40;4.50;;;19.90;59.40;;;;;;5050936;28;20608;-76
2023/06/03 09:02:22;;;;;;;8.83;4.20;;;19.90;59.20;;;;;;5061219;28;20491;-76
2023/06/03 09:04:50;;;;;;;10.27;5.13;;;19.90;59.30;;;;;;5049864;28;20837;-76
2023/06/03 09:07:20;;;;;;;10.20;4.67;;;20.00;59.10;;;;;;5064993;28;20509;-76
2023/06/03 09:09:50;;;;;;;11.20;4.40;;;20.10;59.10;;;;;;5050627;28;20534;-76
2023/06/03 09:12:19;;;;;;;8.87;4.50;;;20.20;59.00;;;;;;5064665;28;20528;-77
2023/06/03 09:14:48;;;;;;;10.00;5.17;;;20.20;58.90;;;;;;5052173;28;20471;-76
2023/06/03 09:17:16;;;;;;;8.83;4.60;;;20.20;58.70;;;;;;5051878;28;20536;-76
2023/06/03 09:19:47;;;;;;;9.47;4.97;;;20.30;58.60;;;;;;5051221;28;20454;-76
2023/06/03 09:22:15;;;;;;;10.53;4.60;;;20.40;58.60;;;;;;5053356;28;20462;-76
2023/06/03 09:24:43;;;;;;;8.93;4.80;;;20.40;58.40;;;;;;5051822;28;20510;-76
2023/06/03 09:27:11;;;;;;;9.80;4.77;;;20.50;58.40;;;;;;5053205;28;20545;-75
2023/06/03 09:29:39;;;;;;;9.80;4.97;;;20.50;58.40;;;;;;5053181;28;21028;-76
2023/06/03 09:32:08;;;;;;;9.80;5.20;;;20.60;58.00;;;;;;5052462;28;20558;-76
2023/06/03 09:34:37;;;;;;;13.87;4.43;;;20.60;58.00;;;;;;5051139;28;20466;-76
2023/06/03 09:37:10;;;;;;;11.93;5.00;;;20.60;58.00;;;;;;5054986;28;20458;-77
2023/06/03 09:39:39;;;;;;;11.73;5.00;;;20.70;57.90;;;;;;5057747;28;20493;-77
2023/06/03 09:42:07;;;;;;;10.67;5.60;;;20.80;57.70;;;;;;5051109;28;20464;-75
2023/06/03 09:44:43;;;;;;;8.73;4.80;;;20.80;57.40;;;;;;5046432;28;20460;-77
2023/06/03 09:47:11;;;;;;;10.87;5.07;;;20.90;57.40;;;;;;5052244;28;20461;-77
2023/06/03 09:49:40;;;;;;;15.67;6.90;;;20.90;57.30;;;;;;5049176;28;20464;-76
2023/06/03 09:52:32;;;;;;;11.13;4.50;;;20.90;57.20;;;;;;5063056;28;20477;-76
2023/06/03 09:55:04;;;;;;;15.90;4.70;;;21.00;56.80;;;;;;5049337;28;20531;-77
2023/06/03 09:57:32;;;;;;;12.20;5.53;;;20.90;56.70;;;;;;5050009;28;20471;-75
2023/06/03 10:00:07;;;;;;;9.33;4.50;;;20.90;56.70;;;;;;5066759;28;20458;-76
2023/06/03 10:02:37;;;;;;;9.77;4.10;;;21.00;56.60;;;;;;5050852;28;20466;-76
2023/06/03 10:05:06;;;;;;;9.80;4.97;;;21.00;56.50;;;;;;5051186;28;20873;-76
2023/06/03 10:07:46;;;;;;;12.27;4.70;;;21.10;56.50;;;;;;5052212;28;20457;-76
2023/06/03 10:10:15;;;;;;;12.77;4.20;;;21.20;56.40;;;;;;5053231;28;20465;-77
2023/06/03 10:12:44;;;;;;;11.67;4.70;;;21.20;56.20;;;;;;5049172;28;20458;-77
2023/06/03 10:15:13;;;;;;;11.13;4.37;;;21.20;56.10;;;;;;5050698;28;20462;-77
2023/06/03 10:17:45;;;;;;;9.03;4.70;;;21.20;56.00;;;;;;5048616;28;20517;-77
2023/06/03 10:20:32;;;;;;;8.90;4.73;;;21.20;55.90;;;;;;5056213;28;21046;-77
2023/06/03 10:23:03;;;;;;;10.00;5.00;;;21.30;55.60;;;;;;5052029;28;20467;-78
2023/06/03 10:25:34;;;;;;;9.43;3.70;;;21.30;55.60;;;;;;5050952;28;20589;-76
2023/06/03 10:28:02;;;;;;;8.30;4.00;;;21.30;55.50;;;;;;5050013;28;20942;-76
2023/06/03 10:30:32;;;;;;;7.90;4.20;;;21.40;55.50;;;;;;5047219;28;20466;-77
2023/06/03 10:33:03;;;;;;;7.93;4.10;;;21.40;55.40;;;;;;5050212;28;20564;-77
2023/06/03 10:35:32;;;;;;;7.47;4.40;;;21.40;55.20;;;;;;5047597;28;20544;-77
2023/06/03 10:38:03;;;;;;;8.50;4.63;;;21.50;54.90;;;;;;5050541;28;20464;-76
2023/06/03 10:40:31;;;;;;;10.47;4.33;;;21.60;54.90;;;;;;5050013;28;20454;-76
2023/06/03 10:42:59;;;;;;;9.20;4.60;;;21.50;54.80;;;;;;5050687;28;20546;-77
2023/06/03 10:45:28;;;;;;;9.03;4.00;;;21.60;54.80;;;;;;5055317;28;20496;-76
2023/06/03 10:48:01;;;;;;;9.70;4.67;;;21.70;54.70;;;;;;5049932;28;20462;-77
2023/06/03 10:50:42;;;;;;;9.13;4.47;;;21.70;54.50;;;;;;5052456;28;20474;-76
2023/06/03 10:53:20;;;;;;;10.43;3.90;;;21.70;54.20;;;;;;5048531;28;20462;-77
2023/06/03 10:56:03;;;;;;;8.80;4.57;;;21.80;54.10;;;;;;5049495;28;21277;-77
2023/06/03 10:58:32;;;;;;;9.37;4.87;;;21.70;54.10;;;;;;5048621;28;20490;-78
2023/06/03 11:01:01;;;;;;;8.70;4.70;;;21.70;54.10;;;;;;5049950;28;20863;-77
2023/06/03 11:03:30;;;;;;;8.20;4.63;;;21.80;54.10;;;;;;5046173;28;20701;-77
2023/06/03 11:06:32;;;;;;;9.73;4.53;;;21.80;53.90;;;;;;5043137;28;20476;-78
2023/06/03 11:09:05;;;;;;;9.20;3.80;;;21.90;54.00;;;;;;5046752;28;20552;-78
2023/06/03 11:11:59;;;;;;;10.37;4.17;;;22.00;53.80;;;;;;5048488;28;20469;-78
2023/06/03 11:14:55;;;;;;;9.47;3.83;;;22.00;53.50;;;;;;5046830;28;20473;-78
2023/06/03 11:17:27;;;;;;;11.73;4.43;;;22.10;53.50;;;;;;5048694;28;20611;-78
2023/06/03 11:19:59;;;;;;;26.53;9.37;;;22.10;53.40;;;;;;5047974;28;20545;-78
2023/06/03 11:22:44;;;;;;;21.40;7.43;;;22.10;53.40;;;;;;5045056;28;20478;-78
2023/06/03 11:25:31;;;;;;;21.30;7.50;;;22.10;53.40;;;;;;5068888;28;20675;-78
2023/06/03 11:28:35;;;;;;;27.30;8.37;;;22.20;53.30;;;;;;5044251;28;20466;-77
2023/06/03 11:31:05;;;;;;;73.40;22.40;;;22.20;53.50;;;;;;5045165;28;20482;-77
2023/06/03 11:33:34;;;;;;;10.07;4.10;;;22.10;53.90;;;;;;5048073;28;20459;-78
2023/06/03 11:36:57;;;;;;;8.13;4.00;;;22.20;54.00;;;;;;5047758;28;20475;-78
2023/06/03 11:39:25;;;;;;;9.07;4.20;;;22.30;53.90;;;;;;5049874;28;20439;-78
2023/06/03 11:42:09;;;;;;;9.47;5.03;;;22.30;53.70;;;;;;5050980;28;20572;-77
2023/06/03 11:44:40;;;;;;;9.07;4.40;;;22.40;53.50;;;;;;5046122;28;20789;-77
2023/06/03 11:47:08;;;;;;;63.10;22.43;;;22.50;53.20;;;;;;5045404;28;20498;-78
2023/06/03 11:49:38;;;;;;;15.73;6.30;;;22.50;53.40;;;;;;5050431;28;20549;-79
2023/06/03 11:52:07;;;;;;;14.50;6.10;;;22.50;53.30;;;;;;5042074;28;20458;-77
2023/06/03 11:54:36;;;;;;;13.57;5.50;;;22.30;53.00;;;;;;5051499;28;20557;-79
2023/06/03 11:57:07;;;;;;;7.90;3.87;;;22.40;53.00;;;;;;5048676;28;20665;-78
2023/06/03 11:59:41;;;;;;;11.00;4.47;;;22.30;53.00;;;;;;5045427;28;20462;-78
2023/06/03 12:02:10;;;;;;;8.87;5.30;;;22.40;52.90;;;;;;5044812;28;20608;-76
2023/06/03 12:04:38;;;;;;;11.27;4.33;;;22.40;52.90;;;;;;5045631;28;20482;-77
2023/06/03 12:07:11;;;;;;;10.80;4.10;;;22.40;53.00;;;;;;5048086;28;20482;-76
2023/06/03 12:09:39;;;;;;;10.77;4.40;;;22.40;53.00;;;;;;5045133;28;20458;-76
2023/06/03 12:12:09;;;;;;;9.40;4.77;;;22.50;52.80;;;;;;5045411;28;20576;-77
2023/06/03 12:14:39;;;;;;;8.03;4.10;;;22.50;52.40;;;;;;5049833;28;20734;-77
2023/06/03 12:17:13;;;;;;;12.43;4.10;;;22.50;52.40;;;;;;5045729;28;20463;-76
2023/06/03 12:19:43;;;;;;;11.33;4.83;;;22.40;52.40;;;;;;5050571;28;20803;-76
2023/06/03 12:22:11;;;;;;;10.20;5.00;;;22.50;52.40;;;;;;5046953;28;20446;-77
2023/06/03 12:24:42;;;;;;;9.20;4.13;;;22.50;52.30;;;;;;5044575;28;20570;-75
2023/06/03 12:27:17;;;;;;;8.37;4.23;;;22.60;52.20;;;;;;5047429;28;20470;-76
2023/06/03 12:29:48;;;;;;;9.13;4.70;;;22.60;52.00;;;;;;5027786;28;20473;-76
2023/06/03 12:32:17;;;;;;;16.60;6.60;;;22.60;52.10;;;;;;5046772;28;20491;-79
2023/06/03 12:34:46;;;;;;;9.53;4.10;;;22.60;52.20;;;;;;5052445;28;20507;-78
2023/06/03 12:37:27;;;;;;;11.70;5.10;;;22.60;52.10;;;;;;5053281;28;20447;-77
2023/06/03 12:39:56;;;;;;;8.57;4.03;;;22.60;52.10;;;;;;5047287;28;20466;-78
2023/06/03 12:42:37;;;;;;;8.17;4.30;;;22.60;52.10;;;;;;5047113;28;20462;-79
2023/06/03 12:45:08;;;;;;;7.70;4.20;;;22.70;52.00;;;;;;5045449;28;20494;-76
2023/06/03 12:47:44;;;;;;;7.87;4.33;;;22.70;52.10;;;;;;5033246;28;20478;-78
2023/06/03 12:50:13;;;;;;;14.87;4.60;;;22.70;51.80;;;;;;5048642;28;20453;-78
2023/06/03 12:52:41;;;;;;;8.67;4.90;;;22.70;51.80;;;;;;5050659;28;20441;-80
2023/06/03 12:55:11;;;;;;;11.30;4.03;;;22.80;51.80;;;;;;5049526;28;20469;-79
2023/06/03 12:57:40;;;;;;;9.50;4.70;;;22.80;51.70;;;;;;5051572;28;20459;-80
2023/06/03 13:00:15;;;;;;;8.53;4.60;;;22.80;51.70;;;;;;5047954;28;20490;-78
2023/06/03 13:02:44;;;;;;;10.17;5.50;;;22.90;51.60;;;;;;5050923;28;20470;-79